Terminal Aerodrome Forecast
Issued by NWS Memphis, TN

Home | Current Version | Previous Version | Text Only | Print | Product List | Glossary On
Versions: 1 2 3 4 5 6 7 8 9 10 11 12 13 14 15 16 17 18 19 20 21 22 23 24
783
FTUS44 KMEG 121122
TAFMEM
TAF
KMEM 121122Z 1212/1312 36005KT P6SM FEW150 SCT250
     FM121600 35010KT P6SM FEW035 SCT250
     FM130200 01012G18KT P6SM FEW035 SCT120=

USA.gov is the U.S. government's official web portal to all federal, state and local government web resources and services.